sensor_id;sensor_type;location;lat;lon;timestamp;P1;P2;P0
33264;PMS5003;31404;53.974;-1.086;2023-02-17T00:00:37;17;17;
33264;PMS5003;31404;53.974;-1.086;2023-02-17T00:05:37;20;17;
33264;PMS5003;31404;53.974;-1.086;2023-02-17T00:10:35;20;17;
33264;PMS5003;31404;53.974;-1.086;2023-02-17T00:15:37;18;16;
33264;PMS5003;31404;53.974;-1.086;2023-02-17T00:20:42;17;15;
33264;PMS5003;31404;53.974;-1.086;2023-02-17T00:25:37;20;19;
33264;PMS5003;31404;53.974;-1.086;2023-02-17T00:30:38;21;21;
33264;PMS5003;31404;53.974;-1.086;2023-02-17T00:35:38;17;17;
33264;PMS5003;31404;53.974;-1.086;2023-02-17T00:40:35;18;17;
33264;PMS5003;31404;53.974;-1.086;2023-02-17T00:45:36;23;20;
33264;PMS5003;31404;53.974;-1.086;2023-02-17T00:50:29;19;19;
33264;PMS5003;31404;53.974;-1.086;2023-02-17T00:55:36;16;16;
33264;PMS5003;31404;53.974;-1.086;2023-02-17T01:00:36;18;18;
33264;PMS5003;31404;53.974;-1.086;2023-02-17T01:05:39;19;19;
33264;PMS5003;31404;53.974;-1.086;2023-02-17T01:10:36;18;18;
33264;PMS5003;31404;53.974;-1.086;2023-02-17T01:15:36;15;15;
33264;PMS5003;31404;53.974;-1.086;2023-02-17T01:20:37;21;20;
33264;PMS5003;31404;53.974;-1.086;2023-02-17T01:25:36;17;17;
33264;PMS5003;31404;53.974;-1.086;2023-02-17T01:30:36;20;19;
33264;PMS5003;31404;53.974;-1.086;2023-02-17T01:35:38;24;23;
33264;PMS5003;31404;53.974;-1.086;2023-02-17T01:40:36;18;18;
33264;PMS5003;31404;53.974;-1.086;2023-02-17T01:45:40;26;23;
33264;PMS5003;31404;53.974;-1.086;2023-02-17T01:50:37;18;17;
33264;PMS5003;31404;53.974;-1.086;2023-02-17T01:55:37;18;17;
33264;PMS5003;31404;53.974;-1.086;2023-02-17T02:00:36;16;15;
33264;PMS5003;31404;53.974;-1.086;2023-02-17T02:05:34;12;12;
33264;PMS5003;31404;53.974;-1.086;2023-02-17T02:10:37;12;10;
33264;PMS5003;31404;53.974;-1.086;2023-02-17T02:15:38;12;12;
33264;PMS5003;31404;53.974;-1.086;2023-02-17T02:35:38;12;9;
33264;PMS5003;31404;53.974;-1.086;2023-02-17T02:40:36;9;8;
33264;PMS5003;31404;53.974;-1.086;2023-02-17T02:45:36;8;8;
33264;PMS5003;31404;53.974;-1.086;2023-02-17T02:55:39;10;10;
33264;PMS5003;31404;53.974;-1.086;2023-02-17T03:00:37;10;9;
33264;PMS5003;31404;53.974;-1.086;2023-02-17T03:05:35;10;10;
33264;PMS5003;31404;53.974;-1.086;2023-02-17T03:15:35;11;11;
33264;PMS5003;31404;53.974;-1.086;2023-02-17T03:20:36;10;10;
33264;PMS5003;31404;53.974;-1.086;2023-02-17T03:25:36;10;7;
33264;PMS5003;31404;53.974;-1.086;2023-02-17T03:30:34;12;12;
33264;PMS5003;31404;53.974;-1.086;2023-02-17T03:35:36;7;7;
33264;PMS5003;31404;53.974;-1.086;2023-02-17T03:40:36;17;17;
33264;PMS5003;31404;53.974;-1.086;2023-02-17T03:45:37;13;8;
33264;PMS5003;31404;53.974;-1.086;2023-02-17T03:50:34;13;13;
33264;PMS5003;31404;53.974;-1.086;2023-02-17T03:55:37;13;12;
33264;PMS5003;31404;53.974;-1.086;2023-02-17T04:00:35;17;15;
33264;PMS5003;31404;53.974;-1.086;2023-02-17T04:05:37;18;13;
33264;PMS5003;31404;53.974;-1.086;2023-02-17T04:10:36;14;14;
33264;PMS5003;31404;53.974;-1.086;2023-02-17T04:15:35;13;11;
33264;PMS5003;31404;53.974;-1.086;2023-02-17T04:20:35;11;11;
33264;PMS5003;31404;53.974;-1.086;2023-02-17T04:25:36;11;8;
33264;PMS5003;31404;53.974;-1.086;2023-02-17T04:30:36;8;8;
33264;PMS5003;31404;53.974;-1.086;2023-02-17T04:35:36;6;6;
33264;PMS5003;31404;53.974;-1.086;2023-02-17T04:40:37;5;5;
33264;PMS5003;31404;53.974;-1.086;2023-02-17T04:45:35;5;5;
33264;PMS5003;31404;53.974;-1.086;2023-02-17T04:50:35;3;3;
33264;PMS5003;31404;53.974;-1.086;2023-02-17T04:55:34;4;4;
33264;PMS5003;31404;53.974;-1.086;2023-02-17T05:00:35;4;3;
33264;PMS5003;31404;53.974;-1.086;2023-02-17T05:05:36;3;3;
33264;PMS5003;31404;53.974;-1.086;2023-02-17T05:10:34;4;4;
33264;PMS5003;31404;53.974;-1.086;2023-02-17T05:15:35;3;3;
33264;PMS5003;31404;53.974;-1.086;2023-02-17T05:20:34;3;3;
33264;PMS5003;31404;53.974;-1.086;2023-02-17T05:25:36;3;3;
33264;PMS5003;31404;53.974;-1.086;2023-02-17T05:30:34;2;2;
33264;PMS5003;31404;53.974;-1.086;2023-02-17T05:35:35;3;2;
33264;PMS5003;31404;53.974;-1.086;2023-02-17T05:40:35;1;1;
33264;PMS5003;31404;53.974;-1.086;2023-02-17T05:45:36;1;1;
33264;PMS5003;31404;53.974;-1.086;2023-02-17T05:50:34;1;1;
33264;PMS5003;31404;53.974;-1.086;2023-02-17T05:55:34;2;1;
33264;PMS5003;31404;53.974;-1.086;2023-02-17T06:00:34;1;1;
33264;PMS5003;31404;53.974;-1.086;2023-02-17T06:05:37;1;1;
33264;PMS5003;31404;53.974;-1.086;2023-02-17T06:10:36;2;2;
33264;PMS5003;31404;53.974;-1.086;2023-02-17T06:15:34;3;1;
33264;PMS5003;31404;53.974;-1.086;2023-02-17T06:20:29;2;1;
33264;PMS5003;31404;53.974;-1.086;2023-02-17T06:25:40;1;1;
33264;PMS5003;31404;53.974;-1.086;2023-02-17T06:30:34;1;1;
33264;PMS5003;31404;53.974;-1.086;2023-02-17T06:35:35;1;1;
33264;PMS5003;31404;53.974;-1.086;2023-02-17T06:40:34;0;0;
33264;PMS5003;31404;53.974;-1.086;2023-02-17T06:45:36;0;0;
33264;PMS5003;31404;53.974;-1.086;2023-02-17T06:50:35;0;0;
33264;PMS5003;31404;53.974;-1.086;2023-02-17T06:55:36;1;1;
33264;PMS5003;31404;53.974;-1.086;2023-02-17T07:00:35;1;1;
33264;PMS5003;31404;53.974;-1.086;2023-02-17T07:05:36;1;1;
33264;PMS5003;31404;53.974;-1.086;2023-02-17T07:10:35;0;0;
33264;PMS5003;31404;53.974;-1.086;2023-02-17T07:15:35;1;1;
33264;PMS5003;31404;53.974;-1.086;2023-02-17T07:20:36;2;1;
33264;PMS5003;31404;53.974;-1.086;2023-02-17T07:25:36;0;0;
33264;PMS5003;31404;53.974;-1.086;2023-02-17T07:30:36;1;0;
33264;PMS5003;31404;53.974;-1.086;2023-02-17T07:40:36;1;1;
33264;PMS5003;31404;53.974;-1.086;2023-02-17T07:45:36;0;0;
33264;PMS5003;31404;53.974;-1.086;2023-02-17T07:50:36;2;1;
33264;PMS5003;31404;53.974;-1.086;2023-02-17T07:55:35;0;0;
33264;PMS5003;31404;53.974;-1.086;2023-02-17T08:00:36;1;1;
33264;PMS5003;31404;53.974;-1.086;2023-02-17T08:05:37;2;1;
33264;PMS5003;31404;53.974;-1.086;2023-02-17T08:10:37;1;0;
33264;PMS5003;31404;53.974;-1.086;2023-02-17T08:15:36;0;0;
33264;PMS5003;31404;53.974;-1.086;2023-02-17T08:20:36;1;0;
33264;PMS5003;31404;53.974;-1.086;2023-02-17T08:25:35;0;0;
33264;PMS5003;31404;53.974;-1.086;2023-02-17T08:30:36;1;1;
33264;PMS5003;31404;53.974;-1.086;2023-02-17T08:35:35;3;0;
33264;PMS5003;31404;53.974;-1.086;2023-02-17T08:40:35;0;0;
33264;PMS5003;31404;53.974;-1.086;2023-02-17T08:45:35;0;0;
33264;PMS5003;31404;53.974;-1.086;2023-02-17T08:50:36;1;1;
33264;PMS5003;31404;53.974;-1.086;2023-02-17T08:55:35;1;1;
33264;PMS5003;31404;53.974;-1.086;2023-02-17T09:00:35;4;2;
33264;PMS5003;31404;53.974;-1.086;2023-02-17T09:05:35;1;1;
33264;PMS5003;31404;53.974;-1.086;2023-02-17T09:10:34;3;2;
33264;PMS5003;31404;53.974;-1.086;2023-02-17T09:15:34;5;3;
33264;PMS5003;31404;53.974;-1.086;2023-02-17T09:20:35;4;1;
33264;PMS5003;31404;53.974;-1.086;2023-02-17T09:25:34;1;1;
33264;PMS5003;31404;53.974;-1.086;2023-02-17T09:30:35;0;0;
33264;PMS5003;31404;53.974;-1.086;2023-02-17T09:35:34;2;0;
33264;PMS5003;31404;53.974;-1.086;2023-02-17T09:40:37;1;1;
33264;PMS5003;31404;53.974;-1.086;2023-02-17T09:45:36;1;1;
33264;PMS5003;31404;53.974;-1.086;2023-02-17T09:50:36;0;0;
33264;PMS5003;31404;53.974;-1.086;2023-02-17T09:55:37;1;1;
33264;PMS5003;31404;53.974;-1.086;2023-02-17T10:00:38;4;1;
33264;PMS5003;31404;53.974;-1.086;2023-02-17T10:05:37;0;0;
33264;PMS5003;31404;53.974;-1.086;2023-02-17T10:10:39;1;1;
33264;PMS5003;31404;53.974;-1.086;2023-02-17T10:15:38;0;0;
33264;PMS5003;31404;53.974;-1.086;2023-02-17T10:20:38;0;0;
33264;PMS5003;31404;53.974;-1.086;2023-02-17T10:30:37;1;1;
33264;PMS5003;31404;53.974;-1.086;2023-02-17T10:40:36;3;0;
33264;PMS5003;31404;53.974;-1.086;2023-02-17T10:45:36;3;1;
33264;PMS5003;31404;53.974;-1.086;2023-02-17T10:50:35;4;2;
33264;PMS5003;31404;53.974;-1.086;2023-02-17T10:55:35;2;2;
33264;PMS5003;31404;53.974;-1.086;2023-02-17T11:00:35;1;1;
33264;PMS5003;31404;53.974;-1.086;2023-02-17T11:05:34;1;1;
33264;PMS5003;31404;53.974;-1.086;2023-02-17T11:10:35;2;2;
33264;PMS5003;31404;53.974;-1.086;2023-02-17T11:15:36;6;3;
33264;PMS5003;31404;53.974;-1.086;2023-02-17T11:20:35;5;1;
33264;PMS5003;31404;53.974;-1.086;2023-02-17T11:25:34;3;3;
33264;PMS5003;31404;53.974;-1.086;2023-02-17T11:30:34;2;1;
33264;PMS5003;31404;53.974;-1.086;2023-02-17T11:40:35;4;2;
33264;PMS5003;31404;53.974;-1.086;2023-02-17T11:45:37;2;2;
33264;PMS5003;31404;53.974;-1.086;2023-02-17T11:50:36;1;1;
33264;PMS5003;31404;53.974;-1.086;2023-02-17T11:55:35;4;1;
33264;PMS5003;31404;53.974;-1.086;2023-02-17T12:00:35;1;1;
33264;PMS5003;31404;53.974;-1.086;2023-02-17T12:10:39;4;1;
33264;PMS5003;31404;53.974;-1.086;2023-02-17T12:20:37;2;2;
33264;PMS5003;31404;53.974;-1.086;2023-02-17T12:25:36;1;1;
33264;PMS5003;31404;53.974;-1.086;2023-02-17T12:30:37;0;0;
33264;PMS5003;31404;53.974;-1.086;2023-02-17T12:35:39;2;2;
33264;PMS5003;31404;53.974;-1.086;2023-02-17T12:40:35;0;0;
33264;PMS5003;31404;53.974;-1.086;2023-02-17T12:45:37;2;2;
33264;PMS5003;31404;53.974;-1.086;2023-02-17T12:55:35;1;1;
33264;PMS5003;31404;53.974;-1.086;2023-02-17T13:00:37;0;0;
33264;PMS5003;31404;53.974;-1.086;2023-02-17T13:05:36;3;1;
33264;PMS5003;31404;53.974;-1.086;2023-02-17T13:10:35;3;1;
33264;PMS5003;31404;53.974;-1.086;2023-02-17T13:15:36;2;1;
33264;PMS5003;31404;53.974;-1.086;2023-02-17T13:25:35;1;1;
33264;PMS5003;31404;53.974;-1.086;2023-02-17T13:30:38;1;1;
33264;PMS5003;31404;53.974;-1.086;2023-02-17T13:35:35;1;1;
33264;PMS5003;31404;53.974;-1.086;2023-02-17T13:40:36;1;1;
33264;PMS5003;31404;53.974;-1.086;2023-02-17T13:45:39;1;1;
33264;PMS5003;31404;53.974;-1.086;2023-02-17T13:50:36;1;1;
33264;PMS5003;31404;53.974;-1.086;2023-02-17T13:55:36;3;1;
33264;PMS5003;31404;53.974;-1.086;2023-02-17T14:00:34;4;3;
33264;PMS5003;31404;53.974;-1.086;2023-02-17T14:05:36;1;1;
33264;PMS5003;31404;53.974;-1.086;2023-02-17T14:10:36;1;1;
33264;PMS5003;31404;53.974;-1.086;2023-02-17T14:15:35;1;1;
33264;PMS5003;31404;53.974;-1.086;2023-02-17T14:20:35;5;1;
33264;PMS5003;31404;53.974;-1.086;2023-02-17T14:25:36;3;2;
33264;PMS5003;31404;53.974;-1.086;2023-02-17T14:30:36;2;1;
33264;PMS5003;31404;53.974;-1.086;2023-02-17T14:35:35;3;1;
33264;PMS5003;31404;53.974;-1.086;2023-02-17T14:40:41;0;0;
33264;PMS5003;31404;53.974;-1.086;2023-02-17T14:45:34;7;1;
33264;PMS5003;31404;53.974;-1.086;2023-02-17T14:50:35;2;2;
33264;PMS5003;31404;53.974;-1.086;2023-02-17T14:55:35;1;1;
33264;PMS5003;31404;53.974;-1.086;2023-02-17T15:00:35;1;1;
33264;PMS5003;31404;53.974;-1.086;2023-02-17T15:05:34;4;3;
33264;PMS5003;31404;53.974;-1.086;2023-02-17T15:10:36;2;0;
33264;PMS5003;31404;53.974;-1.086;2023-02-17T15:15:35;2;1;
33264;PMS5003;31404;53.974;-1.086;2023-02-17T15:20:35;1;1;
33264;PMS5003;31404;53.974;-1.086;2023-02-17T15:25:35;3;2;
33264;PMS5003;31404;53.974;-1.086;2023-02-17T15:30:34;3;1;
33264;PMS5003;31404;53.974;-1.086;2023-02-17T15:35:36;10;10;
33264;PMS5003;31404;53.974;-1.086;2023-02-17T15:40:35;4;3;
33264;PMS5003;31404;53.974;-1.086;2023-02-17T15:45:36;3;2;
33264;PMS5003;31404;53.974;-1.086;2023-02-17T15:50:35;1;1;
33264;PMS5003;31404;53.974;-1.086;2023-02-17T15:55:35;2;2;
33264;PMS5003;31404;53.974;-1.086;2023-02-17T16:00:34;4;2;
33264;PMS5003;31404;53.974;-1.086;2023-02-17T16:05:34;4;2;
33264;PMS5003;31404;53.974;-1.086;2023-02-17T16:10:34;2;2;
33264;PMS5003;31404;53.974;-1.086;2023-02-17T16:15:34;3;2;
33264;PMS5003;31404;53.974;-1.086;2023-02-17T16:20:35;2;2;
33264;PMS5003;31404;53.974;-1.086;2023-02-17T16:25:34;3;3;
33264;PMS5003;31404;53.974;-1.086;2023-02-17T16:30:35;4;4;
33264;PMS5003;31404;53.974;-1.086;2023-02-17T16:35:35;8;4;
33264;PMS5003;31404;53.974;-1.086;2023-02-17T16:40:35;2;2;
33264;PMS5003;31404;53.974;-1.086;2023-02-17T16:45:46;26;22;
33264;PMS5003;31404;53.974;-1.086;2023-02-17T16:50:34;22;17;
33264;PMS5003;31404;53.974;-1.086;2023-02-17T16:55:36;4;4;
33264;PMS5003;31404;53.974;-1.086;2023-02-17T17:00:34;12;12;
33264;PMS5003;31404;53.974;-1.086;2023-02-17T17:05:36;2;2;
33264;PMS5003;31404;53.974;-1.086;2023-02-17T17:15:35;2;2;
33264;PMS5003;31404;53.974;-1.086;2023-02-17T17:20:36;6;4;
33264;PMS5003;31404;53.974;-1.086;2023-02-17T17:25:36;10;7;
33264;PMS5003;31404;53.974;-1.086;2023-02-17T17:30:35;11;11;
33264;PMS5003;31404;53.974;-1.086;2023-02-17T17:35:36;5;4;
33264;PMS5003;31404;53.974;-1.086;2023-02-17T17:40:34;8;3;
33264;PMS5003;31404;53.974;-1.086;2023-02-17T17:45:34;12;10;
33264;PMS5003;31404;53.974;-1.086;2023-02-17T17:50:35;15;13;
33264;PMS5003;31404;53.974;-1.086;2023-02-17T17:55:35;9;9;
33264;PMS5003;31404;53.974;-1.086;2023-02-17T18:00:34;12;8;
33264;PMS5003;31404;53.974;-1.086;2023-02-17T18:05:35;26;23;
33264;PMS5003;31404;53.974;-1.086;2023-02-17T18:10:34;22;20;
33264;PMS5003;31404;53.974;-1.086;2023-02-17T18:15:35;22;22;
33264;PMS5003;31404;53.974;-1.086;2023-02-17T18:20:34;9;9;
33264;PMS5003;31404;53.974;-1.086;2023-02-17T18:25:35;10;8;
33264;PMS5003;31404;53.974;-1.086;2023-02-17T18:30:35;5;5;
33264;PMS5003;31404;53.974;-1.086;2023-02-17T18:35:36;10;4;
33264;PMS5003;31404;53.974;-1.086;2023-02-17T18:40:36;13;13;
33264;PMS5003;31404;53.974;-1.086;2023-02-17T18:45:35;5;5;
33264;PMS5003;31404;53.974;-1.086;2023-02-17T18:50:34;8;8;
33264;PMS5003;31404;53.974;-1.086;2023-02-17T18:55:35;6;6;
33264;PMS5003;31404;53.974;-1.086;2023-02-17T19:00:36;4;4;
33264;PMS5003;31404;53.974;-1.086;2023-02-17T19:05:34;6;6;
33264;PMS5003;31404;53.974;-1.086;2023-02-17T19:10:35;12;10;
33264;PMS5003;31404;53.974;-1.086;2023-02-17T19:15:35;12;11;
33264;PMS5003;31404;53.974;-1.086;2023-02-17T19:20:35;16;11;
33264;PMS5003;31404;53.974;-1.086;2023-02-17T19:25:36;16;15;
33264;PMS5003;31404;53.974;-1.086;2023-02-17T19:30:35;17;14;
33264;PMS5003;31404;53.974;-1.086;2023-02-17T19:40:36;6;5;
33264;PMS5003;31404;53.974;-1.086;2023-02-17T19:45:35;14;11;
33264;PMS5003;31404;53.974;-1.086;2023-02-17T19:50:35;11;10;
33264;PMS5003;31404;53.974;-1.086;2023-02-17T19:55:37;7;6;
33264;PMS5003;31404;53.974;-1.086;2023-02-17T20:00:35;8;6;
33264;PMS5003;31404;53.974;-1.086;2023-02-17T20:05:36;7;7;
33264;PMS5003;31404;53.974;-1.086;2023-02-17T20:10:37;11;8;
33264;PMS5003;31404;53.974;-1.086;2023-02-17T20:15:35;9;9;
33264;PMS5003;31404;53.974;-1.086;2023-02-17T20:20:34;6;6;
33264;PMS5003;31404;53.974;-1.086;2023-02-17T20:30:35;12;6;
33264;PMS5003;31404;53.974;-1.086;2023-02-17T20:35:34;10;7;
33264;PMS5003;31404;53.974;-1.086;2023-02-17T20:40:35;7;5;
33264;PMS5003;31404;53.974;-1.086;2023-02-17T20:45:35;9;8;
33264;PMS5003;31404;53.974;-1.086;2023-02-17T20:50:34;10;10;
33264;PMS5003;31404;53.974;-1.086;2023-02-17T20:55:36;10;10;
33264;PMS5003;31404;53.974;-1.086;2023-02-17T21:05:37;9;7;
33264;PMS5003;31404;53.974;-1.086;2023-02-17T21:10:35;8;8;
33264;PMS5003;31404;53.974;-1.086;2023-02-17T21:15:35;9;8;
33264;PMS5003;31404;53.974;-1.086;2023-02-17T21:20:35;15;13;
33264;PMS5003;31404;53.974;-1.086;2023-02-17T21:25:35;11;11;
33264;PMS5003;31404;53.974;-1.086;2023-02-17T21:30:34;13;12;
33264;PMS5003;31404;53.974;-1.086;2023-02-17T21:35:35;5;4;
33264;PMS5003;31404;53.974;-1.086;2023-02-17T21:40:36;9;6;
33264;PMS5003;31404;53.974;-1.086;2023-02-17T21:45:35;12;10;
33264;PMS5003;31404;53.974;-1.086;2023-02-17T21:50:35;10;8;
33264;PMS5003;31404;53.974;-1.086;2023-02-17T21:55:36;12;12;
33264;PMS5003;31404;53.974;-1.086;2023-02-17T22:05:37;8;8;
33264;PMS5003;31404;53.974;-1.086;2023-02-17T22:10:35;11;9;
33264;PMS5003;31404;53.974;-1.086;2023-02-17T22:15:34;8;8;
33264;PMS5003;31404;53.974;-1.086;2023-02-17T22:20:35;8;7;
33264;PMS5003;31404;53.974;-1.086;2023-02-17T22:30:34;9;6;
33264;PMS5003;31404;53.974;-1.086;2023-02-17T22:35:34;10;9;
33264;PMS5003;31404;53.974;-1.086;2023-02-17T22:40:36;6;6;
33264;PMS5003;31404;53.974;-1.086;2023-02-17T22:45:34;9;8;
33264;PMS5003;31404;53.974;-1.086;2023-02-17T22:50:36;9;7;
33264;PMS5003;31404;53.974;-1.086;2023-02-17T22:55:34;9;8;
33264;PMS5003;31404;53.974;-1.086;2023-02-17T23:00:36;8;8;
33264;PMS5003;31404;53.974;-1.086;2023-02-17T23:05:35;10;7;
33264;PMS5003;31404;53.974;-1.086;2023-02-17T23:15:37;12;11;
33264;PMS5003;31404;53.974;-1.086;2023-02-17T23:20:36;10;8;
33264;PMS5003;31404;53.974;-1.086;2023-02-17T23:25:37;13;10;
33264;PMS5003;31404;53.974;-1.086;2023-02-17T23:30:35;11;10;
33264;PMS5003;31404;53.974;-1.086;2023-02-17T23:35:37;11;11;
33264;PMS5003;31404;53.974;-1.086;2023-02-17T23:40:35;11;9;
33264;PMS5003;31404;53.974;-1.086;2023-02-17T23:45:36;15;12;
33264;PMS5003;31404;53.974;-1.086;2023-02-17T23:50:35;13;13;
33264;PMS5003;31404;53.974;-1.086;2023-02-17T23:55:34;24;17;
